Terminal Aerodrome Forecast
Issued by NWS

Home | Current Version | Previous Version | Text Only | Print | Product List | Glossary On
Versions: 1 2 3 4 5 6 7 8 9 10 11 12 13 14 15 16 17 18 19 20 21 22 23 24 25 26 27 28 29 30 31 32 33 34 35 36
000
FTUS41 KBOX 270543
TAFFMH
TAF
KFMH 270543Z 2706/2806 03030G53KT 1/4SM +SN BLSN OVC003
      WS020/03065KT
     FM270900 03042G64KT 1/4SM +SN BLSN OVC003 WS020/03065KT
     FM271600 01038G59KT 1/2SM SN BLSN OVC008 WS020/01065KT
     FM272200 35020G49KT 1/2SM SN BLSN OVC003 WS020/35050KT
     FM280000 35019G47KT 1SM -SN BLSN OVC003 WS020/34050KT
     FM280500 33016G29KT 6SM BLSN OVC008=

USA.gov is the U.S. government's official web portal to all federal, state and local government web resources and services.